Weather History for Hutchinson, MN

Change the Weather History Date:

Saturday, January 7, 2012

  Actual Average Record
Temperature  
Mean Temperature 33 °F -  
Max Temperature 41 °F 15 °F 53 °F (2003)
Min Temperature 25 °F -1 °F -25 °F (1982)
Degree Days  
Heating Degree Days 32    
Moisture  
Dew Point 26 °F    
Average Humidity 76    
Maximum Humidity 88    
Minimum Humidity 59    
Precipitation  
Precipitation 0.00 in - - ()
Sea Level Pressure  
Sea Level Pressure 30.07 in    
Wind  
Wind Speed 11 mph (West)    
Max Wind Speed 23 mph    
Max Gust Speed 29 mph    
Visibility 10 miles    
Events      
Averages and records for this station are not official NWS values.
T = Trace of Precipitation, MM = Missing Value Source: NWS Daily Summary

Daily Weather History Graph

Daily Weather History Graph

Search for Another Location

Airport:

Trip Planner

Search our weather history database for the weather conditions in past years. The results will help you decide how hot, cold, wet, or windy it might be!

Date:

Astronomy

Jan. 07, 2012 Rise Set
Actual Time 7:54 AM CST 4:52 PM CST
Civil Twilight 7:21 AM CST 5:25 PM CST
Nautical Twilight 6:44 AM CST 6:02 PM CST
Astronomical Twilight 6:09 AM CST 6:38 PM CST
Moon 3:36 PM CST (1/7) 6:28 AM CST (1/7)
Length of Visible Light 10h 04m
Length of Day
8h 57m
Waxing Gibbous, 97% of the Moon is Illuminated
Jan 7
Waxing Gibbous
Jan 9
Full
Jan 16
Last Quarter
Jan 23
New
Jan 30
First Quarter

Hourly Weather History & Observations

Time (CST) Temp. Windchill Dew Point Humidity Pressure Visibility Wind Dir Wind Speed Gust Speed Precip Events Conditions
12:33 AM 34.3 °F 22.3 °F 27.0 °F 74% 29.91 in 10.0 mi NW 23.0 mph 27.6 mph N/A   Overcast
12:52 AM 34.3 °F 23.2 °F 25.7 °F 71% 29.93 in 10.0 mi NW 19.6 mph 26.5 mph N/A   Overcast
1:12 AM 34.3 °F 23.2 °F 26.2 °F 72% 29.93 in 10.0 mi NW 19.6 mph 27.6 mph N/A   Overcast
1:33 AM 34.3 °F 24.2 °F 26.4 °F 73% 29.94 in 10.0 mi NW 16.1 mph 24.2 mph N/A   Overcast
1:53 AM 34.3 °F 24.6 °F 26.4 °F 73% 29.95 in 10.0 mi NW 15.0 mph 21.9 mph N/A   Overcast
2:12 AM 32.4 °F 20.0 °F 24.4 °F 73% 29.95 in 10.0 mi NW 21.9 mph 28.8 mph N/A   Mostly Cloudy
2:32 AM 32.0 °F 20.5 °F 24.1 °F 73% 29.96 in 10.0 mi NW 18.4 mph 24.2 mph N/A   Mostly Cloudy
2:52 AM 32.0 °F 22.1 °F 24.6 °F 74% 29.97 in 10.0 mi NW 13.8 mph 23.0 mph N/A   Scattered Clouds
3:13 AM 30.9 °F 20.7 °F 23.9 °F 75% 29.98 in 10.0 mi NW 13.8 mph 17.3 mph N/A   Clear
3:32 AM 30.0 °F 19.5 °F 23.0 °F 75% 29.98 in 10.0 mi NW 13.8 mph 18.4 mph N/A   Clear
3:53 AM 29.7 °F 19.6 °F 23.0 °F 76% 29.98 in 10.0 mi NW 12.7 mph 18.4 mph N/A   Clear
4:13 AM 29.7 °F 21.3 °F 23.7 °F 79% 29.99 in 10.0 mi NW 9.2 mph - N/A   Clear
4:33 AM 29.7 °F 20.7 °F 24.1 °F 80% 30.00 in 10.0 mi WNW 10.4 mph - N/A   Scattered Clouds
5:13 AM 29.7 °F 19.1 °F 24.1 °F 80% 30.01 in 10.0 mi NW 13.8 mph - N/A   Clear
5:33 AM 29.7 °F 20.1 °F 24.4 °F 81% 30.02 in 10.0 mi NW 11.5 mph 19.6 mph N/A   Clear
5:52 AM 27.1 °F 17.5 °F 22.1 °F 81% 30.02 in 10.0 mi NNW 10.4 mph - N/A   Clear
6:12 AM 27.1 °F 20.7 °F 22.6 °F 83% 30.03 in 10.0 mi NW 5.8 mph - N/A   Clear
6:33 AM 26.2 °F 22.1 °F 22.1 °F 84% 30.03 in 10.0 mi WNW 3.5 mph - N/A   Clear
6:52 AM 25.7 °F - 21.9 °F 86% 30.04 in 10.0 mi Calm Calm - N/A   Mostly Cloudy
7:13 AM 27.1 °F 21.8 °F 23.5 °F 86% 30.04 in 10.0 mi West 4.6 mph - N/A   Overcast
7:33 AM 27.1 °F 20.7 °F 23.5 °F 86% 30.05 in 10.0 mi WSW 5.8 mph - N/A   Overcast
7:52 AM 27.1 °F 21.8 °F 23.7 °F 87% 30.05 in 10.0 mi West 4.6 mph - N/A   Overcast
8:13 AM 27.1 °F 20.7 °F 23.9 °F 88% 30.06 in 10.0 mi West 5.8 mph - N/A   Overcast
8:33 AM 29.7 °F 26.1 °F 26.1 °F 86% 30.08 in 10.0 mi WNW 3.5 mph - N/A   Overcast
8:52 AM 29.7 °F 26.1 °F 25.7 °F 85% 30.09 in 10.0 mi West 3.5 mph - N/A   Overcast
9:12 AM 29.7 °F 26.1 °F 25.5 °F 85% 30.10 in 10.0 mi West 3.5 mph - N/A   Overcast
9:33 AM 29.7 °F 24.7 °F 25.3 °F 84% 30.12 in 10.0 mi WNW 4.6 mph - N/A   Overcast
9:53 AM 29.7 °F 24.7 °F 24.6 °F 81% 30.12 in 10.0 mi WNW 4.6 mph - N/A   Mostly Cloudy
10:12 AM 31.6 °F - 25.9 °F 79% 30.12 in 10.0 mi Calm Calm - N/A   Scattered Clouds
10:33 AM 34.3 °F 30.2 °F 27.1 °F 75% 30.12 in 10.0 mi West 4.6 mph - N/A   Mostly Cloudy
10:52 AM 34.3 °F 30.2 °F 27.1 °F 75% 30.13 in 10.0 mi WNW 4.6 mph - N/A   Overcast
11:13 AM 34.3 °F - 27.3 °F 76% 30.13 in 10.0 mi Calm Calm - N/A   Overcast
11:32 AM 34.3 °F 31.4 °F 26.4 °F 73% 30.13 in 10.0 mi West 3.5 mph - N/A   Mostly Cloudy
11:53 AM 35.8 °F 33.0 °F 27.3 °F 71% 30.12 in 10.0 mi West 3.5 mph - N/A   Clear
12:13 PM 36.9 °F 31.4 °F 27.5 °F 69% 30.12 in 10.0 mi West 6.9 mph - N/A   Clear
12:32 PM 36.9 °F 34.3 °F 27.3 °F 68% 30.11 in 10.0 mi SW 3.5 mph - N/A   Clear
12:52 PM 39.4 °F 35.2 °F 29.1 °F 67% 30.11 in 10.0 mi South 5.8 mph - N/A   Clear
1:13 PM 39.4 °F 35.2 °F 28.4 °F 65% 30.11 in 10.0 mi SW 5.8 mph - N/A   Clear
1:32 PM 39.9 °F 35.1 °F 28.6 °F 64% 30.11 in 10.0 mi WSW 6.9 mph - N/A   Clear
1:52 PM 40.1 °F 35.3 °F 28.6 °F 63% 30.10 in 10.0 mi WSW 6.9 mph - N/A   Clear
2:13 PM 41.9 °F 36.9 °F 28.9 °F 60% 30.10 in 10.0 mi West 8.1 mph - N/A   Clear
2:32 PM 41.9 °F 37.5 °F 28.6 °F 59% 30.11 in 10.0 mi WSW 6.9 mph - N/A   Clear
2:53 PM 41.9 °F 37.5 °F 28.4 °F 59% 30.11 in 10.0 mi WSW 6.9 mph - N/A   Clear
3:12 PM 41.9 °F 36.9 °F 28.4 °F 59% 30.11 in 10.0 mi WSW 8.1 mph - N/A   Clear
3:33 PM 41.5 °F 38.6 °F 28.0 °F 59% 30.11 in 10.0 mi SW 4.6 mph - N/A   Clear
3:53 PM 40.6 °F 36.7 °F 27.3 °F 59% 30.11 in 10.0 mi WSW 5.8 mph - N/A   Clear
4:13 PM 39.9 °F 36.7 °F 27.5 °F 61% 30.12 in 10.0 mi SW 4.6 mph - N/A   Clear
4:32 PM 39.4 °F 37.2 °F 28.6 °F 65% 30.12 in 10.0 mi SSW 3.5 mph - N/A   Clear
4:53 PM 36.9 °F 34.3 °F 28.4 °F 71% 30.12 in 10.0 mi SW 3.5 mph - N/A   Clear
5:12 PM 34.3 °F 31.4 °F 27.9 °F 77% 30.13 in 10.0 mi SW 3.5 mph - N/A   Clear
5:33 PM 32.0 °F - 26.6 °F 80% 30.13 in 10.0 mi Calm Calm - N/A   Clear
5:53 PM 32.0 °F - 27.3 °F 83% 30.14 in 10.0 mi Calm Calm - N/A   Clear
6:12 PM 30.9 °F 27.5 °F 26.1 °F 82% 30.14 in 10.0 mi SW 3.5 mph - N/A   Clear
6:32 PM 29.7 °F 26.1 °F 25.3 °F 84% 30.15 in 10.0 mi SSW 3.5 mph - N/A   Clear
6:52 PM 29.7 °F - 25.2 °F 83% 30.15 in 10.0 mi Calm Calm - N/A   Clear
7:12 PM 29.7 °F - 26.1 °F 86% 30.15 in 10.0 mi Calm Calm - N/A   Clear
7:33 PM 29.7 °F - 26.6 °F 88% 30.16 in 10.0 mi Calm Calm - N/A   Clear
7:53 PM 29.7 °F - 26.2 °F 87% 30.16 in 10.0 mi Calm Calm - N/A   Clear
8:13 PM 29.5 °F 25.9 °F 26.4 °F 88% 30.16 in 10.0 mi WSW 3.5 mph - N/A   Clear
8:53 PM 29.7 °F - 25.7 °F 85% 30.17 in 10.0 mi Calm Calm - N/A   Clear
9:13 PM 29.7 °F 26.1 °F 25.2 °F 83% 30.17 in 10.0 mi WSW 3.5 mph - N/A   Clear
9:32 PM 29.7 °F 26.1 °F 25.2 °F 83% 30.17 in 10.0 mi West 3.5 mph - N/A   Clear
9:52 PM 29.7 °F - 24.6 °F 81% 30.17 in 10.0 mi Calm Calm - N/A   Clear
10:13 PM 25.7 °F - 21.7 °F 85% 30.18 in 10.0 mi Calm Calm - N/A   Clear
10:32 PM 26.1 °F 21.9 °F 23.2 °F 89% 30.18 in 10.0 mi WSW 3.5 mph - N/A   Clear
10:53 PM 24.6 °F 20.3 °F 21.7 °F 89% 30.19 in 10.0 mi WSW 3.5 mph - N/A   Clear
11:12 PM 25.7 °F 21.5 °F 22.5 °F 88% 30.19 in 10.0 mi West 3.5 mph - N/A   Clear
11:33 PM 25.5 °F 21.3 °F 21.2 °F 84% 30.19 in 10.0 mi WSW 3.5 mph - N/A   Clear
11:53 PM 25.3 °F 21.1 °F 21.9 °F 87% 30.19 in 10.0 mi West 3.5 mph - N/A   Clear